Time;durP1;ratioP1;P1;durP2;ratioP2;P2;SDS_P1;SDS_P2;PMS_P1;PMS_P2;Temp;Humidity;BMP_temperature;BMP_pressure;BME280_temperature;BME280_humidity;BME280_pressure;Samples;Min_cycle;Max_cycle;Signal;HPM_P1;HPM_P2
2021/09/26 00:01:46;;;;;;;15.02;10.55;;;16.10;99.90;;;;;;5018133;28;20029;-49
2021/09/26 00:04:12;;;;;;;12.48;9.45;;;16.10;99.90;;;;;;5016345;28;20018;-50
2021/09/26 00:06:37;;;;;;;18.02;10.57;;;16.00;99.90;;;;;;5020158;28;20037;-49
2021/09/26 00:09:04;;;;;;;15.20;9.93;;;16.10;99.90;;;;;;5024524;28;20069;-50
2021/09/26 00:11:30;;;;;;;11.50;9.20;;;16.20;99.90;;;;;;5023430;28;20029;-49
2021/09/26 00:13:59;;;;;;;13.20;9.32;;;16.20;99.90;;;;;;5023169;28;20072;-50
2021/09/26 00:16:24;;;;;;;12.57;9.25;;;16.10;99.90;;;;;;5024509;28;20484;-49
2021/09/26 00:18:51;;;;;;;17.33;9.63;;;15.90;99.90;;;;;;5023205;28;20034;-50
2021/09/26 00:21:17;;;;;;;12.48;9.45;;;15.80;99.90;;;;;;5004734;28;20031;-50
2021/09/26 00:23:44;;;;;;;18.10;10.68;;;15.50;99.90;;;;;;5016940;28;20120;-49
2021/09/26 00:26:10;;;;;;;14.77;9.43;;;15.60;99.90;;;;;;5014060;28;20533;-49
2021/09/26 00:28:36;;;;;;;13.60;9.50;;;15.30;99.90;;;;;;5013886;28;20029;-50
2021/09/26 00:31:03;;;;;;;11.57;9.15;;;15.00;99.90;;;;;;4979729;28;20121;-49
2021/09/26 00:33:29;;;;;;;11.65;8.73;;;14.70;99.90;;;;;;4979824;28;20064;-50
2021/09/26 00:35:55;;;;;;;10.80;9.40;;;14.70;99.90;;;;;;5014025;28;20021;-50
2021/09/26 00:38:21;;;;;;;13.95;10.15;;;14.80;99.90;;;;;;5013846;28;20041;-50
2021/09/26 00:40:50;;;;;;;14.25;9.48;;;15.10;99.90;;;;;;5014019;28;20025;-49
2021/09/26 00:43:16;;;;;;;16.67;9.75;;;15.30;99.90;;;;;;5013315;28;20033;-50
2021/09/26 00:45:43;;;;;;;16.83;10.05;;;15.50;99.90;;;;;;5028404;28;20082;-49
2021/09/26 00:48:08;;;;;;;12.32;10.05;;;15.40;99.90;;;;;;5033728;28;20477;-49
2021/09/26 00:50:35;;;;;;;14.35;10.05;;;15.30;99.90;;;;;;5033646;28;20022;-49
2021/09/26 00:53:02;;;;;;;12.40;8.85;;;15.40;99.90;;;;;;5033356;28;20029;-49
2021/09/26 00:55:30;;;;;;;16.25;10.00;;;15.50;99.90;;;;;;5033336;28;20443;-49
2021/09/26 00:57:57;;;;;;;13.13;9.98;;;15.60;99.90;;;;;;5033151;28;20048;-49
2021/09/26 01:00:23;;;;;;;13.38;11.02;;;15.70;99.90;;;;;;5033449;28;20036;-50
2021/09/26 01:02:48;;;;;;;12.85;10.05;;;15.70;99.90;;;;;;5033334;28;20033;-49
2021/09/26 01:05:16;;;;;;;12.60;9.80;;;15.40;99.90;;;;;;5033405;28;20030;-49
2021/09/26 01:08:09;;;;;;;13.57;9.57;;;15.30;99.90;;;;;;5033035;28;20041;-50
2021/09/26 01:10:40;;;;;;;16.65;9.32;;;15.20;99.90;;;;;;5031803;28;20116;-50
2021/09/26 01:13:50;;;;;;;13.73;9.82;;;15.30;99.90;;;;;;5033795;28;20037;-50
2021/09/26 01:16:28;;;;;;;14.93;8.88;;;15.40;99.90;;;;;;5033221;28;20476;-51
2021/09/26 01:19:32;;;;;;;14.30;8.77;;;15.50;99.90;;;;;;5033221;28;20046;-50
2021/09/26 01:22:03;;;;;;;11.65;8.77;;;15.60;99.90;;;;;;5031053;28;20033;-49
2021/09/26 01:24:37;;;;;;;14.82;8.40;;;15.50;99.90;;;;;;5031256;28;20389;-50
2021/09/26 01:27:15;;;;;;;16.60;9.93;;;15.60;99.90;;;;;;5033596;28;20385;-49
2021/09/26 01:30:05;;;;;;;12.18;8.98;;;15.70;99.90;;;;;;5033036;28;20044;-49
2021/09/26 01:32:33;;;;;;;14.13;9.75;;;15.70;99.90;;;;;;5013409;28;20025;-49
2021/09/26 01:35:02;;;;;;;12.63;8.23;;;15.60;99.90;;;;;;5011779;28;20116;-48
2021/09/26 01:37:41;;;;;;;18.08;7.88;;;15.60;99.90;;;;;;5013264;28;20030;-49
2021/09/26 01:40:31;;;;;;;13.80;8.93;;;15.60;99.90;;;;;;5013276;28;20568;-49
2021/09/26 01:43:04;;;;;;;12.70;8.07;;;15.60;99.90;;;;;;4991254;28;20125;-49
2021/09/26 01:45:54;;;;;;;9.23;7.55;;;15.50;99.90;;;;;;5013208;28;20061;-49
2021/09/26 01:48:33;;;;;;;10.50;7.68;;;15.40;99.90;;;;;;4972319;28;20078;-49
2021/09/26 01:51:00;;;;;;;10.32;7.85;;;15.30;99.90;;;;;;4972290;28;20129;-49
2021/09/26 01:53:28;;;;;;;10.73;8.35;;;15.40;99.90;;;;;;4985177;28;20097;-50
2021/09/26 01:55:55;;;;;;;10.18;9.00;;;15.40;99.90;;;;;;4991688;28;20046;-50
2021/09/26 01:58:23;;;;;;;15.05;8.93;;;15.40;99.90;;;;;;4975162;28;20125;-49
2021/09/26 02:00:49;;;;;;;12.25;8.50;;;15.40;99.90;;;;;;4991444;28;20030;-49
2021/09/26 02:03:19;;;;;;;12.18;8.40;;;15.40;99.90;;;;;;4975415;28;20053;-50
2021/09/26 02:05:46;;;;;;;11.15;8.68;;;15.40;99.90;;;;;;4994165;28;20042;-50
2021/09/26 02:08:13;;;;;;;9.70;8.30;;;15.40;99.90;;;;;;4994763;28;20518;-49
2021/09/26 02:10:41;;;;;;;12.68;8.70;;;15.40;99.90;;;;;;4994854;28;20030;-50
2021/09/26 02:13:09;;;;;;;11.25;9.45;;;15.40;99.90;;;;;;4978971;28;20418;-50
2021/09/26 02:15:36;;;;;;;13.05;10.00;;;15.40;99.90;;;;;;4994677;28;20033;-50
2021/09/26 02:18:03;;;;;;;14.95;9.00;;;15.40;99.90;;;;;;4946398;28;20046;-49
2021/09/26 02:20:29;;;;;;;12.40;9.27;;;15.40;99.90;;;;;;4992086;28;20038;-49
2021/09/26 02:22:56;;;;;;;14.73;11.02;;;15.40;99.90;;;;;;4994730;28;20061;-50
2021/09/26 02:25:23;;;;;;;14.95;10.13;;;15.40;99.90;;;;;;5017067;28;20033;-50
2021/09/26 02:27:49;;;;;;;15.98;9.65;;;15.40;99.90;;;;;;5034675;28;20428;-49
2021/09/26 02:30:16;;;;;;;9.75;7.97;;;15.40;99.90;;;;;;5017845;28;20034;-49
2021/09/26 02:32:42;;;;;;;12.55;8.73;;;15.40;99.90;;;;;;5035871;28;20157;-49
2021/09/26 02:35:09;;;;;;;11.02;8.90;;;15.40;99.90;;;;;;5035929;28;20053;-49
2021/09/26 02:37:35;;;;;;;12.90;8.65;;;15.40;99.90;;;;;;4984987;28;20042;-49
2021/09/26 02:40:02;;;;;;;10.00;8.43;;;15.40;99.90;;;;;;5036056;28;20220;-48
2021/09/26 02:42:40;;;;;;;11.38;9.18;;;15.40;99.90;;;;;;5035772;28;20032;-48
2021/09/26 02:45:37;;;;;;;15.10;9.10;;;15.30;99.90;;;;;;5035683;28;20054;-48
2021/09/26 02:48:15;;;;;;;13.27;9.73;;;15.20;99.90;;;;;;4994322;28;20042;-49
2021/09/26 02:50:42;;;;;;;13.52;9.07;;;15.10;99.90;;;;;;4994106;28;20529;-49
2021/09/26 02:53:09;;;;;;;12.02;10.48;;;15.10;99.90;;;;;;4994237;28;20076;-49
2021/09/26 02:55:36;;;;;;;16.92;11.57;;;15.00;99.90;;;;;;4994113;28;20113;-49
2021/09/26 02:58:02;;;;;;;18.73;12.43;;;15.00;99.90;;;;;;4994227;28;20046;-50
2021/09/26 03:00:33;;;;;;;15.68;12.00;;;14.90;99.90;;;;;;4993951;28;20080;-49
2021/09/26 03:03:07;;;;;;;13.87;12.20;;;14.80;99.90;;;;;;4994089;28;20081;-49
2021/09/26 03:05:33;;;;;;;15.32;11.52;;;14.80;99.90;;;;;;4993827;28;20038;-50
2021/09/26 03:07:59;;;;;;;14.20;11.82;;;14.60;99.90;;;;;;4961289;28;20092;-49
2021/09/26 03:10:25;;;;;;;16.13;12.10;;;14.60;99.90;;;;;;4945364;28;20038;-50
2021/09/26 03:12:50;;;;;;;15.52;12.50;;;14.60;99.90;;;;;;4993821;28;20418;-49
2021/09/26 03:15:16;;;;;;;13.85;11.27;;;14.50;99.90;;;;;;4961489;28;20050;-49
2021/09/26 03:17:42;;;;;;;18.48;13.52;;;14.50;99.90;;;;;;4961591;28;20053;-49
2021/09/26 03:20:08;;;;;;;18.90;12.40;;;14.50;99.90;;;;;;4993764;28;20026;-49
2021/09/26 03:22:34;;;;;;;23.88;15.32;;;14.60;99.90;;;;;;4961201;28;20070;-49
2021/09/26 03:25:00;;;;;;;21.33;14.63;;;14.60;99.90;;;;;;4987614;28;20034;-49
2021/09/26 03:27:25;;;;;;;22.55;17.73;;;14.60;99.90;;;;;;4997080;28;20450;-50
2021/09/26 03:29:51;;;;;;;19.35;16.25;;;14.60;99.90;;;;;;5015078;28;20473;-49
2021/09/26 03:32:17;;;;;;;18.27;13.32;;;14.60;99.90;;;;;;5015289;28;20030;-48
2021/09/26 03:34:43;;;;;;;17.92;14.50;;;14.50;99.90;;;;;;5014907;28;20470;-49
2021/09/26 03:37:09;;;;;;;19.55;15.50;;;14.50;99.90;;;;;;5015101;28;20030;-49
2021/09/26 03:39:41;;;;;;;22.45;17.02;;;14.50;99.90;;;;;;5015321;28;20033;-48
2021/09/26 03:42:06;;;;;;;21.23;17.52;;;14.50;99.90;;;;;;5015094;28;20026;-49
2021/09/26 03:44:33;;;;;;;25.88;17.00;;;14.60;99.90;;;;;;5014764;28;20038;-49
2021/09/26 03:46:59;;;;;;;19.35;14.73;;;14.60;99.90;;;;;;5014751;28;20037;-49
2021/09/26 03:49:25;;;;;;;16.55;13.95;;;14.60;99.90;;;;;;4980561;28;20038;-48
2021/09/26 03:51:51;;;;;;;14.60;12.32;;;14.50;99.90;;;;;;4996732;28;20515;-49
2021/09/26 03:54:19;;;;;;;17.80;13.32;;;14.50;99.90;;;;;;5014809;28;20079;-49
2021/09/26 03:56:45;;;;;;;19.38;15.07;;;14.50;99.90;;;;;;4997149;28;20042;-48
2021/09/26 03:59:12;;;;;;;18.17;14.13;;;14.40;99.90;;;;;;5014902;28;20477;-49
2021/09/26 04:01:39;;;;;;;19.00;14.70;;;14.50;99.90;;;;;;5014541;28;20087;-49
2021/09/26 04:04:06;;;;;;;19.67;15.68;;;14.60;99.90;;;;;;4996505;28;20048;-49
2021/09/26 04:06:32;;;;;;;21.23;15.38;;;14.60;99.90;;;;;;4996365;28;20034;-50
2021/09/26 04:08:58;;;;;;;20.70;14.73;;;14.60;99.90;;;;;;5014099;28;20061;-49
2021/09/26 04:11:24;;;;;;;20.92;15.55;;;14.60;99.90;;;;;;5014615;28;20390;-49
2021/09/26 04:13:50;;;;;;;17.52;14.77;;;14.60;99.90;;;;;;5014242;28;20041;-49
2021/09/26 04:16:15;;;;;;;18.73;14.15;;;14.60;99.90;;;;;;5014428;28;20029;-49
2021/09/26 04:18:41;;;;;;;18.98;14.63;;;14.70;99.90;;;;;;5014333;28;20113;-49
2021/09/26 04:21:08;;;;;;;19.00;14.35;;;14.60;99.90;;;;;;5014154;28;20034;-49
2021/09/26 04:23:34;;;;;;;19.77;14.43;;;14.60;99.90;;;;;;5014341;28;20477;-49
2021/09/26 04:25:59;;;;;;;24.13;15.55;;;14.60;99.90;;;;;;4992389;28;20044;-49
2021/09/26 04:28:25;;;;;;;22.00;15.60;;;14.50;99.90;;;;;;4992124;28;20144;-48
2021/09/26 04:30:51;;;;;;;19.98;14.93;;;14.50;99.90;;;;;;4992429;28;20074;-49
2021/09/26 04:33:17;;;;;;;18.05;15.32;;;14.60;99.90;;;;;;4976106;28;20537;-49
2021/09/26 04:35:42;;;;;;;21.45;15.07;;;14.60;99.90;;;;;;4992493;28;20097;-49
2021/09/26 04:38:08;;;;;;;16.67;13.63;;;14.60;99.90;;;;;;4992247;28;20041;-49
2021/09/26 04:40:34;;;;;;;22.20;15.77;;;14.70;99.90;;;;;;4959940;28;20117;-49
2021/09/26 04:43:00;;;;;;;16.10;13.73;;;14.70;99.90;;;;;;4992402;28;20034;-50
2021/09/26 04:45:26;;;;;;;20.05;15.50;;;14.80;99.90;;;;;;4960049;28;20035;-50
2021/09/26 04:47:52;;;;;;;21.35;15.80;;;14.90;99.90;;;;;;4992199;28;20033;-49
2021/09/26 04:50:17;;;;;;;19.70;14.90;;;14.80;99.90;;;;;;4976059;28;20035;-49
2021/09/26 04:52:43;;;;;;;18.65;15.55;;;14.90;99.90;;;;;;4992175;28;20045;-49
2021/09/26 04:55:09;;;;;;;19.42;15.20;;;14.90;99.90;;;;;;4991943;28;20027;-50
2021/09/26 04:57:35;;;;;;;25.42;15.35;;;15.00;99.90;;;;;;4986501;28;20046;-50
2021/09/26 05:00:06;;;;;;;21.20;14.52;;;15.00;99.90;;;;;;5013764;28;20026;-49
2021/09/26 05:02:32;;;;;;;22.73;15.07;;;15.10;99.90;;;;;;4979658;28;20038;-49
2021/09/26 05:04:58;;;;;;;19.10;14.93;;;15.10;99.90;;;;;;5013524;28;20026;-50
2021/09/26 05:07:24;;;;;;;20.45;16.25;;;15.10;99.90;;;;;;4995140;28;20057;-49
2021/09/26 05:09:49;;;;;;;24.65;18.63;;;15.10;99.90;;;;;;4995651;28;20429;-49
2021/09/26 05:12:15;;;;;;;26.77;17.33;;;15.00;99.90;;;;;;5013731;28;20046;-49
2021/09/26 05:14:41;;;;;;;29.98;18.83;;;15.00;99.90;;;;;;5013764;28;20462;-50
2021/09/26 05:17:07;;;;;;;25.08;18.40;;;15.10;99.90;;;;;;5013455;28;20101;-50
2021/09/26 05:19:33;;;;;;;23.75;16.88;;;15.20;99.90;;;;;;5013581;28;20044;-50
2021/09/26 05:21:59;;;;;;;23.15;18.63;;;15.30;99.90;;;;;;4995622;28;20126;-49
2021/09/26 05:24:25;;;;;;;21.17;18.38;;;15.40;99.90;;;;;;5013502;28;20022;-49
2021/09/26 05:26:51;;;;;;;26.35;17.20;;;15.50;99.90;;;;;;4992017;28;20034;-49
2021/09/26 05:29:17;;;;;;;26.83;18.30;;;15.50;99.90;;;;;;4959878;28;20035;-50
2021/09/26 05:31:43;;;;;;;26.88;20.75;;;15.40;99.90;;;;;;4991785;28;20121;-49
2021/09/26 05:34:09;;;;;;;25.95;19.88;;;15.60;99.90;;;;;;4991677;28;20030;-49
2021/09/26 05:36:36;;;;;;;27.17;21.52;;;15.60;99.90;;;;;;4992163;28;20125;-49
2021/09/26 05:39:03;;;;;;;43.75;34.97;;;15.80;99.90;;;;;;4991496;28;20038;-50
2021/09/26 05:41:29;;;;;;;29.52;24.15;;;15.90;99.90;;;;;;4995590;28;20049;-49
2021/09/26 05:43:55;;;;;;;22.20;19.70;;;16.00;99.90;;;;;;4995302;28;20026;-50
2021/09/26 05:46:21;;;;;;;27.33;20.70;;;16.10;99.90;;;;;;4979247;28;20506;-49
2021/09/26 05:48:47;;;;;;;27.40;22.08;;;16.20;99.90;;;;;;4995348;28;21136;-50
2021/09/26 05:51:12;;;;;;;26.27;21.20;;;16.30;99.90;;;;;;4995337;28;20026;-50
2021/09/26 05:53:38;;;;;;;24.15;18.27;;;16.30;99.90;;;;;;4995350;28;20039;-50
2021/09/26 05:56:04;;;;;;;24.02;19.23;;;16.40;99.90;;;;;;4995246;28;20105;-50
2021/09/26 05:58:30;;;;;;;24.40;19.40;;;16.40;99.90;;;;;;5012035;28;20124;-49
2021/09/26 06:00:56;;;;;;;29.05;20.45;;;16.50;99.90;;;;;;4998801;28;20169;-50
2021/09/26 06:03:21;;;;;;;26.05;20.25;;;16.60;99.90;;;;;;5016858;28;20029;-49
2021/09/26 06:05:47;;;;;;;29.77;22.77;;;16.70;99.90;;;;;;5016830;28;20414;-50
2021/09/26 06:08:13;;;;;;;30.17;22.17;;;16.70;99.90;;;;;;4998416;28;20060;-49
2021/09/26 06:10:39;;;;;;;32.10;21.65;;;16.60;99.90;;;;;;5016649;28;20036;-48
2021/09/26 06:13:06;;;;;;;30.17;21.02;;;16.70;99.90;;;;;;5031494;28;20033;-49
2021/09/26 06:15:33;;;;;;;31.10;20.65;;;16.40;99.90;;;;;;5031395;28;20460;-49
2021/09/26 06:17:59;;;;;;;27.17;18.25;;;16.50;99.90;;;;;;5016341;28;20048;-49
2021/09/26 06:20:25;;;;;;;26.10;17.95;;;16.80;99.90;;;;;;5022669;28;20026;-49
2021/09/26 06:22:51;;;;;;;25.55;18.48;;;16.90;99.90;;;;;;5016260;28;20026;-49
2021/09/26 06:37:20;;;;;;;20.70;16.33;;;17.60;99.90;;;;;;5054595;28;20451;-50
2021/09/26 06:39:46;;;;;;;18.63;15.57;;;19.50;99.90;;;;;;5049099;28;20045;-49
2021/09/26 06:42:12;;;;;;;19.67;14.02;;;19.40;99.90;;;;;;5049398;28;20025;-50
2021/09/26 06:44:37;;;;;;;20.60;13.68;;;19.70;99.90;;;;;;5049285;28;20048;-49
2021/09/26 06:47:03;;;;;;;18.98;13.85;;;19.90;99.90;;;;;;5048769;28;20025;-53
2021/09/26 06:49:29;;;;;;;17.08;13.68;;;20.10;99.90;;;;;;5000066;28;20037;-50
2021/09/26 06:51:55;;;;;;;13.90;12.15;;;20.40;99.90;;;;;;5049555;28;20116;-49
2021/09/26 06:54:20;;;;;;;17.67;12.43;;;21.10;99.90;;;;;;5028560;28;20153;-50
2021/09/26 06:56:46;;;;;;;16.27;12.88;;;21.50;99.90;;;;;;5030281;28;20468;-48
2021/09/26 06:59:12;;;;;;;16.33;12.13;;;22.10;99.90;;;;;;5049727;28;20457;-47
2021/09/26 07:01:38;;;;;;;17.70;12.15;;;22.40;99.90;;;;;;5047306;28;20025;-48
2021/09/26 07:04:04;;;;;;;18.08;12.48;;;22.80;99.60;;;;;;5049137;28;20033;-48
2021/09/26 07:06:30;;;;;;;16.15;11.93;;;22.90;99.30;;;;;;5048542;28;20034;-47
2021/09/26 07:08:55;;;;;;;14.63;11.70;;;22.90;98.90;;;;;;5049765;28;20475;-47
2021/09/26 07:11:21;;;;;;;16.17;11.38;;;23.20;98.70;;;;;;5048961;28;20032;-47
2021/09/26 07:13:48;;;;;;;16.00;11.43;;;23.30;98.50;;;;;;5026354;28;20037;-47
2021/09/26 07:16:14;;;;;;;15.85;10.85;;;23.50;97.80;;;;;;5049041;28;20025;-47
2021/09/26 07:18:40;;;;;;;15.23;10.27;;;24.80;99.90;;;;;;5048966;28;20024;-48
2021/09/26 07:21:06;;;;;;;14.35;9.10;;;24.60;99.90;;;;;;5049309;28;20464;-48
2021/09/26 07:23:32;;;;;;;11.55;9.23;;;;;;;;;;5048567;28;20108;-47
2021/09/26 07:25:58;;;;;;;12.10;9.30;;;25.60;99.90;;;;;;5049078;28;20361;-48
2021/09/26 07:28:23;;;;;;;12.48;8.10;;;25.70;94.50;;;;;;5049037;28;20033;-47
2021/09/26 07:30:50;;;;;;;9.23;6.50;;;;;;;;;;5047443;28;20035;-47
2021/09/26 07:33:16;;;;;;;8.45;5.53;;;;;;;;;;5047505;28;20033;-48
2021/09/26 07:35:45;;;;;;;9.02;6.10;;;27.50;99.90;;;;;;5046205;28;20091;-47
2021/09/26 07:38:12;;;;;;;8.70;6.32;;;;;;;;;;5016815;28;20051;-47
2021/09/26 07:40:38;;;;;;;8.93;5.75;;;;;;;;;;5033296;28;20030;-47
2021/09/26 07:43:06;;;;;;;9.63;6.05;;;;;;;;;;5032544;28;20423;-49
2021/09/26 07:45:32;;;;;;;8.85;6.00;;;;;;;;;;5033102;28;20053;-48
2021/09/26 07:47:58;;;;;;;10.68;6.47;;;28.70;86.40;;;;;;5034192;28;20045;-49
2021/09/26 07:50:26;;;;;;;7.95;6.25;;;28.80;84.40;;;;;;5034664;28;20029;-50
2021/09/26 07:52:53;;;;;;;8.80;6.55;;;28.80;83.90;;;;;;5032537;28;20072;-49
2021/09/26 07:55:19;;;;;;;12.13;7.03;;;28.90;83.50;;;;;;5034468;28;20037;-49
2021/09/26 07:57:46;;;;;;;8.43;6.32;;;29.20;82.90;;;;;;5034720;28;20021;-49
2021/09/26 08:00:13;;;;;;;9.57;6.82;;;29.10;81.80;;;;;;5034940;28;20033;-48
2021/09/26 08:02:39;;;;;;;12.75;6.05;;;29.40;80.50;;;;;;5015599;28;20045;-49
2021/09/26 08:05:06;;;;;;;8.50;6.38;;;;;;;;;;5033661;28;20045;-49
2021/09/26 08:07:33;;;;;;;9.85;6.68;;;30.30;98.80;;;;;;5034543;28;20028;-49
2021/09/26 08:09:59;;;;;;;7.60;6.10;;;;;;;;;;5031946;28;20064;-49
2021/09/26 08:12:25;;;;;;;13.18;6.88;;;30.20;99.90;;;;;;5027806;28;20038;-50
2021/09/26 08:14:51;;;;;;;10.52;5.70;;;;;;;;;;5033354;28;20090;-49
2021/09/26 08:17:17;;;;;;;8.57;6.28;;;;;;;;;;5032426;28;20046;-50
2021/09/26 08:19:43;;;;;;;8.98;6.63;;;;;;;;;;5033246;28;20049;-49
2021/09/26 08:22:09;;;;;;;9.50;5.90;;;;;;;;;;5035061;28;20079;-49
2021/09/26 08:24:35;;;;;;;11.50;7.30;;;31.70;95.20;;;;;;5034378;28;20416;-49
2021/09/26 08:27:03;;;;;;;9.65;6.57;;;32.50;94.80;;;;;;5032064;28;20034;-49
2021/09/26 08:29:29;;;;;;;10.50;6.38;;;32.60;84.00;;;;;;5016815;28;20040;-49
2021/09/26 08:31:55;;;;;;;10.07;6.32;;;32.70;72.90;;;;;;5029435;28;20954;-48
2021/09/26 08:34:21;;;;;;;9.45;6.20;;;33.50;91.80;;;;;;5033712;28;20435;-46
2021/09/26 08:36:47;;;;;;;8.15;5.65;;;33.80;70.40;;;;;;5034720;28;20049;-48
2021/09/26 08:39:13;;;;;;;8.27;6.25;;;34.00;70.00;;;;;;5033181;28;20037;-48
2021/09/26 08:41:39;;;;;;;9.88;6.20;;;34.20;70.10;;;;;;4982229;28;20041;-48
2021/09/26 08:44:06;;;;;;;8.68;5.60;;;34.20;67.90;;;;;;5014573;28;20037;-49
2021/09/26 08:46:32;;;;;;;8.00;5.53;;;;;;;;;;5033573;28;20090;-50
2021/09/26 08:48:59;;;;;;;8.85;6.30;;;34.30;66.00;;;;;;5031878;28;20037;-50
2021/09/26 08:51:25;;;;;;;11.18;5.78;;;;;;;;;;5031742;28;20025;-50
2021/09/26 08:53:51;;;;;;;7.50;5.45;;;34.90;65.80;;;;;;5033499;28;20381;-49
2021/09/26 08:56:21;;;;;;;11.50;5.35;;;35.10;63.80;;;;;;5031945;28;20042;-50
2021/09/26 08:58:48;;;;;;;8.90;5.38;;;35.00;64.00;;;;;;4996096;28;20072;-50
2021/09/26 09:01:15;;;;;;;8.40;4.68;;;34.40;64.50;;;;;;5033635;28;20042;-49
2021/09/26 09:03:45;;;;;;;8.27;5.22;;;34.50;64.30;;;;;;5033416;28;20037;-49
2021/09/26 09:06:11;;;;;;;8.43;5.40;;;34.40;64.20;;;;;;5033348;28;20045;-49
2021/09/26 09:08:40;;;;;;;9.57;5.43;;;34.90;63.80;;;;;;5030976;28;20033;-49
2021/09/26 09:11:08;;;;;;;7.78;4.93;;;34.40;64.00;;;;;;5029493;28;20057;-49
2021/09/26 09:13:39;;;;;;;8.65;5.10;;;;;;;;;;5032871;28;20064;-49
2021/09/26 09:16:07;;;;;;;8.63;5.03;;;35.30;63.20;;;;;;5029314;28;20033;-49
2021/09/26 09:18:43;;;;;;;6.65;4.88;;;35.20;62.90;;;;;;5033747;28;20108;-49
2021/09/26 09:21:28;;;;;;;5.45;4.80;;;34.30;63.60;;;;;;5030986;28;20048;-48
2021/09/26 09:24:25;;;;;;;9.32;5.78;;;34.70;63.40;;;;;;5030206;28;20030;-49
2021/09/26 09:26:53;;;;;;;5.95;4.32;;;34.50;63.10;;;;;;5031560;28;20057;-50
2021/09/26 09:29:22;;;;;;;10.32;5.10;;;34.90;63.30;;;;;;5033346;28;20034;-49
2021/09/26 09:31:53;;;;;;;6.22;4.85;;;34.80;63.00;;;;;;5034069;28;20030;-49
2021/09/26 09:34:29;;;;;;;6.32;5.03;;;35.30;62.50;;;;;;5034322;28;20021;-49
2021/09/26 09:37:11;;;;;;;10.18;5.00;;;35.90;63.10;;;;;;5007111;28;20041;-49
2021/09/26 09:39:38;;;;;;;7.22;4.38;;;35.70;62.20;;;;;;5028273;28;20029;-49
2021/09/26 09:42:21;;;;;;;12.75;6.13;;;36.30;62.70;;;;;;5024125;28;20508;-49
2021/09/26 09:44:47;;;;;;;7.85;5.95;;;36.40;62.00;;;;;;5024305;28;20100;-48
2021/09/26 09:47:13;;;;;;;8.93;5.63;;;36.40;61.70;;;;;;5014090;28;20036;-48
2021/09/26 09:49:55;;;;;;;9.15;5.65;;;36.60;61.90;;;;;;5014362;28;20030;-49
2021/09/26 09:52:46;;;;;;;8.25;5.13;;;36.80;62.90;;;;;;5014174;28;20076;-49
2021/09/26 09:55:17;;;;;;;7.35;4.95;;;36.30;59.50;;;;;;5014215;28;20025;-48
2021/09/26 09:57:43;;;;;;;8.02;4.80;;;36.50;60.50;;;;;;5016168;28;20119;-50
2021/09/26 10:00:17;;;;;;;7.00;5.40;;;36.70;59.90;;;;;;5013796;28;20081;-49
2021/09/26 10:02:43;;;;;;;8.40;5.10;;;36.50;58.80;;;;;;4979665;28;20029;-49
2021/09/26 10:05:32;;;;;;;7.10;4.43;;;36.20;61.60;;;;;;5013900;28;20045;-48
2021/09/26 10:07:58;;;;;;;10.15;5.60;;;36.70;60.40;;;;;;5028556;28;20057;-48
2021/09/26 10:10:33;;;;;;;9.32;5.13;;;36.70;59.20;;;;;;5013921;28;20433;-48
2021/09/26 10:13:12;;;;;;;7.00;4.78;;;36.50;59.60;;;;;;4995804;28;20390;-49
2021/09/26 10:15:38;;;;;;;6.38;4.63;;;36.50;59.60;;;;;;5013883;28;20038;-49
2021/09/26 10:18:04;;;;;;;9.05;5.40;;;36.60;58.40;;;;;;4995471;28;20045;-49
2021/09/26 10:20:31;;;;;;;8.68;5.30;;;;;;;;;;5028629;28;20436;-48
2021/09/26 10:22:57;;;;;;;9.48;6.25;;;37.20;58.70;;;;;;5013765;28;20037;-49
2021/09/26 10:25:24;;;;;;;7.53;4.78;;;37.30;59.90;;;;;;5013793;28;20033;-50
2021/09/26 10:27:52;;;;;;;9.20;5.22;;;37.20;58.80;;;;;;5013635;28;20026;-49
2021/09/26 10:30:21;;;;;;;6.72;4.82;;;37.10;58.70;;;;;;4979740;28;20557;-48
2021/09/26 10:32:48;;;;;;;7.03;4.93;;;37.00;58.30;;;;;;5013656;28;20446;-49
2021/09/26 10:35:14;;;;;;;7.70;4.47;;;37.30;58.00;;;;;;5013393;28;20041;-48
2021/09/26 10:37:40;;;;;;;5.72;3.80;;;37.30;57.80;;;;;;5013739;28;20088;-49
2021/09/26 10:40:07;;;;;;;6.10;4.65;;;37.40;56.80;;;;;;5013628;28;20109;-49
2021/09/26 10:42:37;;;;;;;7.35;4.97;;;37.10;57.00;;;;;;5013615;28;20432;-48
2021/09/26 10:45:06;;;;;;;6.53;4.80;;;36.70;56.60;;;;;;5013589;28;20535;-47
2021/09/26 10:47:37;;;;;;;8.10;4.70;;;36.90;56.80;;;;;;5011698;28;20485;-48
2021/09/26 10:50:13;;;;;;;5.10;4.50;;;37.10;56.70;;;;;;5013003;28;20034;-48
2021/09/26 10:52:44;;;;;;;9.82;5.40;;;37.10;57.30;;;;;;5009995;28;20502;-49
2021/09/26 10:55:18;;;;;;;6.95;4.25;;;37.10;57.20;;;;;;5012200;28;20461;-50
2021/09/26 10:58:00;;;;;;;5.75;4.05;;;37.10;57.90;;;;;;5027071;28;20529;-50
2021/09/26 11:00:49;;;;;;;15.35;6.00;;;36.90;56.10;;;;;;5020483;28;20033;-49
2021/09/26 11:03:34;;;;;;;4.95;4.32;;;37.00;57.10;;;;;;5030907;28;20037;-49
2021/09/26 11:06:20;;;;;;;6.80;4.75;;;36.90;56.50;;;;;;5012144;28;20045;-49
2021/09/26 11:08:52;;;;;;;7.90;5.00;;;36.40;55.90;;;;;;5012165;28;20026;-50
2021/09/26 11:11:38;;;;;;;7.72;5.20;;;36.80;57.40;;;;;;5012277;28;20354;-50
2021/09/26 11:14:07;;;;;;;5.60;4.78;;;36.90;57.10;;;;;;5015815;28;20037;-49
2021/09/26 11:16:49;;;;;;;6.82;4.70;;;37.00;57.30;;;;;;5030205;28;20105;-49
2021/09/26 11:19:15;;;;;;;10.13;4.57;;;36.60;57.00;;;;;;5015745;28;20113;-49
2021/09/26 11:21:45;;;;;;;6.43;4.97;;;36.40;56.80;;;;;;5015761;28;20038;-50
2021/09/26 11:24:13;;;;;;;10.60;4.32;;;;;;;;;;5030026;28;20777;-49
2021/09/26 11:26:59;;;;;;;6.72;3.90;;;35.90;55.50;;;;;;5015591;28;20097;-49
2021/09/26 11:29:50;;;;;;;9.10;4.63;;;36.00;57.50;;;;;;5015478;28;20036;-49
2021/09/26 11:32:19;;;;;;;8.02;4.00;;;36.20;57.50;;;;;;5029941;28;20394;-48
2021/09/26 11:34:51;;;;;;;7.63;3.90;;;36.20;56.20;;;;;;5015511;28;20034;-49
2021/09/26 11:37:38;;;;;;;6.03;3.90;;;36.40;55.50;;;;;;5015148;28;20600;-49
2021/09/26 11:40:14;;;;;;;7.75;3.70;;;36.40;55.10;;;;;;5015189;28;20540;-49
2021/09/26 11:42:41;;;;;;;10.23;3.72;;;36.40;55.30;;;;;;4997479;28;20164;-49
2021/09/26 11:45:15;;;;;;;6.20;4.22;;;36.20;55.80;;;;;;5015094;28;20032;-49
2021/09/26 11:47:41;;;;;;;5.43;3.88;;;36.30;56.00;;;;;;5015305;28;20037;-49
2021/09/26 11:50:10;;;;;;;6.13;3.78;;;36.20;55.60;;;;;;5012883;28;20033;-48
2021/09/26 11:52:39;;;;;;;7.65;3.85;;;36.20;55.10;;;;;;5015215;28;20367;-49
2021/09/26 11:55:07;;;;;;;5.63;3.80;;;35.90;54.70;;;;;;5015059;28;20044;-48
2021/09/26 11:57:33;;;;;;;6.13;4.30;;;36.00;56.30;;;;;;4996591;28;20044;-49
2021/09/26 11:59:59;;;;;;;5.88;4.18;;;35.80;54.90;;;;;;5014827;28;20022;-49
2021/09/26 12:02:25;;;;;;;5.60;3.80;;;35.70;56.10;;;;;;5012967;28;20030;-50
2021/09/26 12:04:51;;;;;;;4.65;3.88;;;35.20;55.50;;;;;;5014881;28;20525;-48
2021/09/26 12:07:17;;;;;;;8.02;4.85;;;;;;;;;;5014902;28;20045;-49
2021/09/26 12:09:48;;;;;;;7.15;4.10;;;34.80;55.50;;;;;;5023132;28;20029;-49
2021/09/26 12:12:19;;;;;;;;;;;35.10;56.70;;;;;;5014947;28;20068;-49
2021/09/26 12:14:51;;;;;;;11.27;4.05;;;35.30;55.80;;;;;;5014731;28;20287;-49
2021/09/26 12:17:26;;;;;;;6.43;3.72;;;35.30;56.00;;;;;;5014635;28;20029;-49
2021/09/26 12:20:00;;;;;;;4.78;4.00;;;35.40;56.60;;;;;;4995600;28;20034;-49
2021/09/26 12:22:28;;;;;;;7.13;4.00;;;35.00;62.90;;;;;;5019724;28;20455;-49
2021/09/26 12:24:58;;;;;;;7.47;4.32;;;34.60;57.60;;;;;;5014387;28;20033;-48
2021/09/26 12:27:48;;;;;;;6.72;4.25;;;34.60;57.00;;;;;;5027485;28;20030;-49
2021/09/26 12:30:45;;;;;;;5.35;3.75;;;34.90;55.90;;;;;;5034127;28;20028;-49
2021/09/26 12:33:24;;;;;;;8.65;4.75;;;34.60;56.20;;;;;;5033125;28;20030;-49
2021/09/26 12:35:54;;;;;;;7.55;3.75;;;34.50;56.70;;;;;;5009990;28;20121;-49
2021/09/26 12:38:26;;;;;;;11.02;6.13;;;34.30;56.40;;;;;;5014238;28;20057;-49
2021/09/26 12:41:06;;;;;;;6.60;4.10;;;34.50;56.00;;;;;;5019354;28;20136;-49
2021/09/26 12:43:45;;;;;;;8.67;5.07;;;34.70;56.20;;;;;;5014195;28;20041;-49
2021/09/26 12:46:13;;;;;;;6.88;4.50;;;34.70;55.70;;;;;;5015100;28;20037;-49
2021/09/26 12:48:39;;;;;;;5.95;4.30;;;34.80;55.70;;;;;;5015184;28;20084;-48
2021/09/26 12:51:18;;;;;;;5.60;4.22;;;34.60;55.80;;;;;;5014959;28;20022;-49
2021/09/26 12:53:46;;;;;;;6.88;4.07;;;34.90;56.00;;;;;;5025144;28;20041;-49
2021/09/26 12:56:23;;;;;;;6.18;4.28;;;34.90;55.90;;;;;;5016311;28;20459;-49
2021/09/26 12:58:53;;;;;;;5.55;3.97;;;35.10;56.20;;;;;;5035100;28;20101;-48
2021/09/26 13:01:21;;;;;;;5.75;4.30;;;35.00;55.60;;;;;;5025530;28;20396;-49
2021/09/26 13:04:02;;;;;;;7.45;3.75;;;35.30;56.20;;;;;;5024144;28;20029;-50
2021/09/26 13:06:37;;;;;;;6.30;4.13;;;;;;;;;;5015889;28;20056;-48